ソウル/仁川 の空港の天気 - METARとTAF

仁川国際空港 ( RKSI / ICN ) - 韓国 仁川広域市 (ソウル特別市近郊)
飛行場実況気象(Metar)
観測時間06/26 07:30 KST (06/25 22:30 UTC)
風向・風速北北東 2m/s
視程10km以上
天気現象
なし
気温22℃
湿度73%
気圧1011hPa
METARRKSI 252230Z 03003KT CAVOK 22/17 Q1011 NOSIG
過去の天気等 Google飛行場航空写真 Wunderground天気予報

過去48時間のMETAR

飛行場予報(TAF)
発表時間: 6/26 02:00 KST (6/25 17:00 UTC)
予報対象時間: 26日3時 KST ~ 27日9時 KST
風向・風速東北東 3m/s
視程10km以上
なし
26日10時 KST ~ 26日11時 KST に徐々に
風向・風速西北西 4m/s
26日18時 KST ~ 26日19時 KST に徐々に
風向・風速南南西 4m/s
視程3500m
天気現象弱い雨
少しの雲 雲底高度 300m
全天の8割程度の雲 雲底高度 760m
全天を覆う雲 雲底高度 2440m
26日22時 KST ~ 26日23時 KST に徐々に
風向・風速西 4m/s
TAF RKSI 251700Z 2518/2624 07006KT CAVOK TN19/2521Z TX27/2606Z TN20/2621Z
BECMG 2601/2602 29008KT
BECMG 2609/2610 21008KT 3500 -RA FEW010 BKN025 OVC080
BECMG 2613/2614 27008KT